createdAt,value
2022-10-21T00:02:14.807Z,13.60
2022-10-21T00:05:57.030Z,13.60
2022-10-21T00:09:38.867Z,13.60
2022-10-21T00:13:21.870Z,13.70
2022-10-21T00:17:03.707Z,13.70
2022-10-21T00:20:45.483Z,13.70
2022-10-21T00:24:27.293Z,13.70
2022-10-21T00:28:09.101Z,13.70
2022-10-21T00:31:54.277Z,13.70
2022-10-21T00:35:36.120Z,13.70
2022-10-21T00:39:18.005Z,13.60
2022-10-21T00:43:00.268Z,13.60
2022-10-21T00:46:47.576Z,13.60
2022-10-21T00:50:37.510Z,13.70
2022-10-21T00:54:24.871Z,13.70
2022-10-21T00:58:08.107Z,13.70
2022-10-21T01:01:50.087Z,13.70
2022-10-21T01:05:32.432Z,13.80
2022-10-21T01:09:15.155Z,13.80
2022-10-21T01:13:03.753Z,13.80
2022-10-21T01:16:57.630Z,13.80
2022-10-21T01:21:08.505Z,13.80
2022-10-21T01:25:08.069Z,13.90
2022-10-21T01:28:49.871Z,13.90
2022-10-21T01:32:50.215Z,14.00
2022-10-21T01:36:38.103Z,14.10
2022-10-21T01:40:31.463Z,14.10
2022-10-21T01:44:18.550Z,14.20
2022-10-21T01:48:08.301Z,14.20
2022-10-21T01:51:52.098Z,14.20
2022-10-21T01:55:35.537Z,14.20
2022-10-21T01:59:19.866Z,14.30
2022-10-21T02:03:05.986Z,14.30
2022-10-21T02:06:47.816Z,14.30
2022-10-21T02:10:34.811Z,14.40
2022-10-21T02:14:36.742Z,14.40
2022-10-21T02:18:24.438Z,14.50
2022-10-21T02:22:09.758Z,14.50
2022-10-21T02:25:51.828Z,14.50
2022-10-21T02:29:37.624Z,14.60
2022-10-21T02:33:30.886Z,14.60
2022-10-21T02:37:30.211Z,14.60
2022-10-21T02:41:16.387Z,14.60
2022-10-21T02:45:03.031Z,14.60
2022-10-21T02:48:46.585Z,14.70
2022-10-21T02:52:28.399Z,14.60
2022-10-21T02:56:10.431Z,14.60
2022-10-21T02:59:52.278Z,14.70
2022-10-21T03:03:34.103Z,14.70
2022-10-21T03:07:15.965Z,14.70
2022-10-21T03:10:57.792Z,14.70
2022-10-21T03:14:39.715Z,14.70
2022-10-21T03:18:21.537Z,14.80
2022-10-21T03:22:03.466Z,14.80
2022-10-21T03:25:45.291Z,14.90
2022-10-21T03:29:27.174Z,14.90
2022-10-21T03:33:09.036Z,15.00
2022-10-21T03:36:50.854Z,15.00
2022-10-21T03:40:32.710Z,15.00
2022-10-21T03:44:14.568Z,15.10
2022-10-21T03:47:56.566Z,15.10
2022-10-21T03:51:38.402Z,15.10
2022-10-21T03:55:21.093Z,15.20
2022-10-21T03:59:03.187Z,15.20
2022-10-21T04:02:45.179Z,15.20
2022-10-21T04:06:27.028Z,15.20
2022-10-21T04:10:10.404Z,15.20
2022-10-21T04:13:52.354Z,15.20
2022-10-21T04:17:34.197Z,15.20
2022-10-21T04:21:16.220Z,15.20
2022-10-21T04:24:59.765Z,15.20
2022-10-21T04:28:44.131Z,15.20
2022-10-21T04:32:25.950Z,15.20
2022-10-21T04:36:07.944Z,15.20
2022-10-21T04:39:49.771Z,15.20
2022-10-21T04:43:31.803Z,15.20
2022-10-21T04:47:13.644Z,15.20
2022-10-21T04:50:55.967Z,15.20
2022-10-21T04:54:37.774Z,15.20
2022-10-21T04:58:22.042Z,15.10
2022-10-21T05:02:04.215Z,15.10
2022-10-21T05:05:50.307Z,15.10
2022-10-21T05:09:32.152Z,15.10
2022-10-21T05:13:14.674Z,15.10
2022-10-21T05:16:56.523Z,15.10
2022-10-21T05:20:38.337Z,15.10
2022-10-21T05:24:20.233Z,15.10
2022-10-21T05:28:02.081Z,15.20
2022-10-21T05:31:44.088Z,15.20
2022-10-21T05:35:25.991Z,15.20
2022-10-21T05:39:11.359Z,15.20
2022-10-21T05:42:53.182Z,15.20
2022-10-21T05:46:35.068Z,15.20
2022-10-21T05:50:16.976Z,15.30
2022-10-21T05:53:59.140Z,15.30
2022-10-21T05:57:41.064Z,15.30
2022-10-21T06:01:23.211Z,15.40
2022-10-21T06:05:05.361Z,15.40
2022-10-21T06:08:47.189Z,15.40
2022-10-21T06:12:29.056Z,15.40
2022-10-21T06:16:12.325Z,15.50
2022-10-21T06:19:54.159Z,15.50
2022-10-21T06:23:36.304Z,15.50
2022-10-21T06:27:18.141Z,15.60
2022-10-21T06:31:00.190Z,15.50
2022-10-21T06:34:42.015Z,15.50
2022-10-21T06:38:26.066Z,15.50
2022-10-21T06:42:07.883Z,15.60
2022-10-21T06:45:49.671Z,15.50
2022-10-21T06:49:31.610Z,15.60
2022-10-21T06:53:13.482Z,15.60
2022-10-21T06:56:55.299Z,15.70
2022-10-21T07:00:37.702Z,15.70
2022-10-21T07:04:19.511Z,15.70
2022-10-21T07:08:01.282Z,15.70
2022-10-21T07:11:43.803Z,15.70
2022-10-21T07:15:25.847Z,15.70
2022-10-21T07:19:09.901Z,15.70
2022-10-21T07:22:51.723Z,15.80
2022-10-21T07:26:34.963Z,15.80
2022-10-21T07:30:16.792Z,15.80
2022-10-21T07:37:50.072Z,15.80
2022-10-21T07:41:35.849Z,15.80
2022-10-21T07:45:17.683Z,15.80
2022-10-21T07:48:59.578Z,15.80
2022-10-21T07:52:51.926Z,15.70
2022-10-21T07:56:49.237Z,15.70
2022-10-21T08:00:31.155Z,15.80
2022-10-21T08:04:18.537Z,15.80
2022-10-21T08:08:00.380Z,15.90
2022-10-21T08:11:42.478Z,15.90
2022-10-21T08:15:24.287Z,16.00
2022-10-21T08:19:06.915Z,16.00
2022-10-21T08:22:48.726Z,16.00
2022-10-21T08:26:31.015Z,16.00
2022-10-21T08:30:12.851Z,16.00
2022-10-21T08:33:55.306Z,16.00
2022-10-21T08:37:37.155Z,16.00
2022-10-21T08:41:18.921Z,16.10
2022-10-21T08:45:07.424Z,16.20
2022-10-21T08:49:02.675Z,16.20
2022-10-21T08:52:52.424Z,16.20
2022-10-21T08:56:34.316Z,16.10
2022-10-21T09:00:18.931Z,16.10
2022-10-21T09:04:10.393Z,16.10
2022-10-21T09:08:19.598Z,16.10
2022-10-21T09:12:19.362Z,16.00
2022-10-21T09:16:13.551Z,16.10
2022-10-21T09:20:17.121Z,16.10
2022-10-21T09:24:28.543Z,16.20
2022-10-21T09:28:13.698Z,16.20
2022-10-21T09:32:24.504Z,16.20
2022-10-21T09:36:13.095Z,16.20
2022-10-21T09:40:05.999Z,16.20
2022-10-21T09:43:48.856Z,16.30
2022-10-21T09:47:32.349Z,16.40
2022-10-21T09:51:18.876Z,16.50
2022-10-21T09:55:00.910Z,16.60
2022-10-21T09:58:42.676Z,16.50
2022-10-21T10:02:35.689Z,16.50
2022-10-21T10:06:39.744Z,16.50
2022-10-21T10:10:34.264Z,16.40
2022-10-21T10:14:25.735Z,16.40
2022-10-21T10:18:20.956Z,16.40
2022-10-21T10:22:11.906Z,16.50
2022-10-21T10:25:53.762Z,16.50
2022-10-21T10:29:37.327Z,16.50
2022-10-21T10:33:24.219Z,16.40
2022-10-21T10:37:17.634Z,16.40
2022-10-21T10:41:13.404Z,16.40
2022-10-21T10:45:12.490Z,16.30
2022-10-21T10:48:56.614Z,16.20
2022-10-21T10:52:38.444Z,16.10
2022-10-21T10:56:26.563Z,15.90
2022-10-21T11:00:22.302Z,15.80
2022-10-21T11:04:16.427Z,15.70
2022-10-21T11:08:04.222Z,15.60
2022-10-21T11:11:48.906Z,15.60
2022-10-21T11:15:56.442Z,15.50
2022-10-21T11:19:50.222Z,15.40
2022-10-21T11:23:58.805Z,15.40
2022-10-21T11:27:49.608Z,15.30
2022-10-21T11:32:09.733Z,15.40
2022-10-21T11:35:59.760Z,15.50
2022-10-21T11:39:53.646Z,15.90
2022-10-21T11:43:59.356Z,16.30
2022-10-21T11:47:56.942Z,16.80
2022-10-21T11:51:43.612Z,17.10
2022-10-21T11:55:40.788Z,17.60
2022-10-21T12:00:20.471Z,18.40
2022-10-21T12:04:21.562Z,18.90
2022-10-21T12:08:27.801Z,18.80
2022-10-21T12:12:22.682Z,18.50
2022-10-21T12:16:11.055Z,18.10
2022-10-21T12:19:59.778Z,17.80
2022-10-21T12:23:42.442Z,17.70
2022-10-21T12:27:42.088Z,17.80
2022-10-21T12:31:30.584Z,18.10
2022-10-21T12:35:27.875Z,18.10
2022-10-21T12:39:18.791Z,18.00
2022-10-21T12:43:02.672Z,18.00
2022-10-21T12:46:46.007Z,17.80
2022-10-21T12:50:30.844Z,17.60
2022-10-21T12:54:17.890Z,17.50
2022-10-21T12:58:02.350Z,17.40
2022-10-21T13:01:46.327Z,17.30
2022-10-21T13:06:02.092Z,17.20
2022-10-21T13:10:08.958Z,16.90
2022-10-21T13:14:16.531Z,16.80
2022-10-21T13:17:58.489Z,16.60
2022-10-21T13:21:44.003Z,16.50
2022-10-21T13:25:33.427Z,16.30
2022-10-21T13:29:31.935Z,16.30
2022-10-21T13:33:22.443Z,16.20
2022-10-21T13:37:13.839Z,16.20
2022-10-21T13:41:01.990Z,16.20
2022-10-21T13:44:52.525Z,16.20
2022-10-21T13:48:40.871Z,16.10
2022-10-21T13:52:30.709Z,16.00
2022-10-21T13:56:23.067Z,15.90
2022-10-21T14:00:07.580Z,15.90
2022-10-21T14:03:50.198Z,15.80
2022-10-21T14:07:32.802Z,15.80
2022-10-21T14:11:22.707Z,15.80
2022-10-21T14:15:18.220Z,15.80
2022-10-21T14:19:05.176Z,15.70
2022-10-21T14:22:51.291Z,15.70
2022-10-21T14:26:34.544Z,15.80
2022-10-21T14:30:20.806Z,15.80
2022-10-21T14:34:04.850Z,15.90
2022-10-21T14:37:51.813Z,15.90
2022-10-21T14:41:38.058Z,15.90
2022-10-21T14:45:28.259Z,16.00
2022-10-21T14:49:20.369Z,16.00
2022-10-21T14:53:02.913Z,16.10
2022-10-21T14:56:46.777Z,16.10
2022-10-21T15:00:30.621Z,16.10
2022-10-21T15:04:50.766Z,16.10
2022-10-21T15:08:32.794Z,16.10
2022-10-21T15:12:18.994Z,16.20
2022-10-21T15:16:02.887Z,16.30
2022-10-21T15:19:51.183Z,16.30
2022-10-21T15:23:35.334Z,16.20
2022-10-21T15:27:36.657Z,16.20
2022-10-21T15:31:24.755Z,16.20
2022-10-21T15:35:14.661Z,16.20
2022-10-21T15:38:56.531Z,16.20
2022-10-21T15:42:38.375Z,16.20
2022-10-21T15:46:20.181Z,16.10
2022-10-21T15:50:05.661Z,16.10
2022-10-21T15:53:47.487Z,16.10
2022-10-21T15:57:29.332Z,16.10
2022-10-21T16:01:16.298Z,16.10
2022-10-21T16:04:58.189Z,16.10
2022-10-21T16:08:40.075Z,16.00
2022-10-21T16:12:22.554Z,16.00
2022-10-21T16:16:05.447Z,15.90
2022-10-21T16:19:47.299Z,16.00
2022-10-21T16:23:29.102Z,15.90
2022-10-21T16:27:23.055Z,15.90
2022-10-21T16:31:14.804Z,15.90
2022-10-21T16:34:56.599Z,15.90
2022-10-21T16:38:38.396Z,15.90
2022-10-21T16:42:20.266Z,15.90
2022-10-21T16:46:02.187Z,15.80
2022-10-21T16:49:44.098Z,15.80
2022-10-21T16:53:29.034Z,15.80
2022-10-21T16:57:10.822Z,15.80
2022-10-21T17:00:52.836Z,15.70
2022-10-21T17:04:34.653Z,15.70
2022-10-21T17:08:17.033Z,15.70
2022-10-21T17:11:58.928Z,15.70
2022-10-21T17:15:40.800Z,15.70
2022-10-21T17:19:22.624Z,15.70
2022-10-21T17:23:04.467Z,15.70
2022-10-21T17:26:46.415Z,15.60
2022-10-21T17:30:28.300Z,15.70
2022-10-21T17:34:24.510Z,15.60
2022-10-21T17:38:06.522Z,15.60
2022-10-21T17:41:48.673Z,15.60
2022-10-21T17:45:30.519Z,15.60
2022-10-21T17:49:12.360Z,15.60
2022-10-21T17:52:55.244Z,15.60
2022-10-21T17:56:37.104Z,15.60
2022-10-21T18:00:19.021Z,15.60
2022-10-21T18:04:01.346Z,15.60
2022-10-21T18:07:43.211Z,15.60
2022-10-21T18:11:25.211Z,15.60
2022-10-21T18:15:07.391Z,15.60
2022-10-21T18:18:49.941Z,15.60
2022-10-21T18:22:31.848Z,15.60
2022-10-21T18:26:20.157Z,15.60
2022-10-21T18:30:05.564Z,15.60
2022-10-21T18:33:48.122Z,15.60
2022-10-21T18:37:31.561Z,15.60
2022-10-21T18:41:20.149Z,15.60
2022-10-21T18:45:02.654Z,15.60
2022-10-21T18:48:44.632Z,15.60
2022-10-21T18:52:26.431Z,15.60
2022-10-21T18:56:13.380Z,15.60
2022-10-21T18:59:55.108Z,15.70
2022-10-21T19:03:37.444Z,15.70
2022-10-21T19:07:19.588Z,15.70
2022-10-21T19:11:01.469Z,15.70
2022-10-21T19:14:43.242Z,15.70
2022-10-21T19:18:25.167Z,15.60
2022-10-21T19:22:07.018Z,15.60
2022-10-21T19:25:48.809Z,15.70
2022-10-21T19:29:30.767Z,15.60
2022-10-21T19:33:12.601Z,15.60
2022-10-21T19:36:54.466Z,15.60
2022-10-21T19:40:36.406Z,15.60
2022-10-21T19:44:18.583Z,15.60
2022-10-21T19:48:00.435Z,15.60
2022-10-21T19:51:42.392Z,15.60
2022-10-21T19:55:24.325Z,15.50
2022-10-21T19:59:07.218Z,15.40
2022-10-21T20:02:49.111Z,15.40
2022-10-21T20:06:36.046Z,15.40
2022-10-21T20:10:20.302Z,15.30
2022-10-21T20:14:02.547Z,15.30
2022-10-21T20:17:44.335Z,15.20
2022-10-21T20:21:26.550Z,15.20
2022-10-21T20:25:08.871Z,15.20
2022-10-21T20:28:51.355Z,15.20
2022-10-21T20:32:33.933Z,15.10
2022-10-21T20:36:20.723Z,15.10
2022-10-21T20:40:02.650Z,15.10
2022-10-21T20:43:44.537Z,15.10
2022-10-21T20:47:27.611Z,15.00
2022-10-21T20:51:14.403Z,15.00
2022-10-21T20:54:56.202Z,15.00
2022-10-21T20:58:40.250Z,14.90
2022-10-21T21:02:22.054Z,14.80
2022-10-21T21:06:04.995Z,14.80
2022-10-21T21:10:03.402Z,14.80
2022-10-21T21:13:45.998Z,14.90
2022-10-21T21:17:28.064Z,14.80
2022-10-21T21:21:12.977Z,14.60
2022-10-21T21:24:54.787Z,14.60
2022-10-21T21:28:37.631Z,14.70
2022-10-21T21:32:19.864Z,14.50
2022-10-21T21:36:03.009Z,14.70
2022-10-21T21:39:44.856Z,14.40
2022-10-21T21:43:28.236Z,14.60
2022-10-21T21:47:10.620Z,14.40
2022-10-21T21:50:52.669Z,14.30
2022-10-21T21:54:34.464Z,14.30
2022-10-21T21:58:16.291Z,14.50
2022-10-21T22:01:58.276Z,14.50
2022-10-21T22:05:40.069Z,14.40
2022-10-21T22:09:21.969Z,14.20
2022-10-21T22:13:03.911Z,14.30
2022-10-21T22:16:45.763Z,14.20
2022-10-21T22:20:27.800Z,14.30
2022-10-21T22:24:09.606Z,14.10
2022-10-21T22:27:51.394Z,14.10
2022-10-21T22:31:33.259Z,14.30
2022-10-21T22:35:15.065Z,14.30
2022-10-21T22:38:57.091Z,14.00
2022-10-21T22:42:38.935Z,14.10
2022-10-21T22:46:33.372Z,14.00
2022-10-21T22:50:15.972Z,14.00
2022-10-21T22:53:57.816Z,14.10
2022-10-21T22:57:39.691Z,14.10
2022-10-21T23:01:21.822Z,14.10
2022-10-21T23:05:03.850Z,13.90
2022-10-21T23:08:45.756Z,14.00
2022-10-21T23:12:27.591Z,14.30
2022-10-21T23:16:10.699Z,14.20
2022-10-21T23:19:52.958Z,14.20
2022-10-21T23:23:34.806Z,14.40
2022-10-21T23:27:16.900Z,14.20
2022-10-21T23:30:59.300Z,14.30
2022-10-21T23:34:41.112Z,14.50
2022-10-21T23:38:23.016Z,14.40
2022-10-21T23:42:05.042Z,14.60
2022-10-21T23:45:48.854Z,14.50
2022-10-21T23:49:30.667Z,14.50
2022-10-21T23:53:12.516Z,14.50
2022-10-21T23:56:54.343Z,14.50
